パゴパゴ の空港の天気 - METARとTAF

パゴパゴ国際空港 ( NSTU / PPG ) - アメリカ領サモア パゴパゴ
飛行場実況気象(Metar)
観測時間08/16 23:50 SST (08/17 10:50 UTC)
風向・風速静穏 0m/s
視程10km以上
天気現象
少しの雲 雲底高度 700m
気温24.3℃
湿度92%
気圧1013hPa
METARNSTU 171050Z 00000KT 10SM FEW023 24/23 A2991 RMK SLP130 T02430229 402760243
過去の天気等 Google飛行場航空写真 Wunderground天気予報

過去48時間のMETAR

飛行場予報(TAF)
発表時間: 8/17 00:21 SST (8/17 11:21 UTC)
予報対象時間: 17日1時 SST ~ 18日1時 SST
風向・風速不定 3m/s
視程10km以上
天気現象周辺でしゅう雨
全天の4割程度の雲 雲底高度 610m
全天の4割程度の雲 雲底高度 1220m
全天の4割程度の雲 雲底高度 3050m
NSTU 171121Z 1712/1812 VRB05KT P6SM VCSH SCT020 SCT040 SCT100